Wind EuroAirport

Messzeit Windrichtung Windgeschwindigkeit [Knoten] Rückenwind Nordpiste [Knoten] METAR
2021-06-15 13:00 N 10°
(310°–50°)
5 2–5 LFSB 151100Z 01005KT 310V050 CAVOK 28/13 Q1019 NOSIG
2021-06-15 12:30 NO 40°
(300°–90°)
4 0–4 LFSB 151030Z 04004KT 300V090 CAVOK 27/14 Q1019 NOSIG
2021-06-15 12:00 NO 30°
(340°–100°)
4 0–4 LFSB 151000Z 03004KT 340V100 CAVOK 27/13 Q1019 NOSIG
2021-06-15 11:30 NO 30°
(360°–60°)
5 1–5 LFSB 150930Z 03005KT 360V060 CAVOK 26/14 Q1019 NOSIG
2021-06-15 11:00 - 3 - LFSB 150900Z VRB03KT CAVOK 25/14 Q1019 NOSIG
2021-06-15 10:30 - 2 - LFSB 150830Z VRB02KT CAVOK 24/14 Q1019 NOSIG
2021-06-15 10:00 - 3 - LFSB 150800Z VRB03KT CAVOK 23/13 Q1019 NOSIG
2021-06-15 09:00 - 2 - LFSB 150700Z VRB02KT CAVOK 22/13 Q1019 NOSIG
2021-06-15 08:30 S 170°
(140°–200°)
3 - LFSB 150630Z 17003KT 140V200 CAVOK 20/14 Q1019 NOSIG
2021-06-15 08:00 S 160° 4 - LFSB 150600Z 16004KT CAVOK 18/14 Q1019 NOSIG
2021-06-15 07:30 S 180° 4 - LFSB 150530Z 18004KT CAVOK 17/14 Q1019 NOSIG
2021-06-15 07:00 S 180° 3 - LFSB 150500Z 18003KT CAVOK 16/14 Q1019 NOSIG
2021-06-15 06:30 - 0 - LFSB 150430Z AUTO 00000KT CAVOK 15/13 Q1019 NOSIG
2021-06-15 06:00 N 340° 3 3 LFSB 150400Z AUTO 34003KT CAVOK 13/12 Q1019 NOSIG
2021-06-15 05:30 SO 140° 2 - LFSB 150330Z AUTO 14002KT CAVOK 15/12 Q1018 NOSIG
2021-06-15 05:00 S 180° 3 - LFSB 150300Z AUTO 18003KT CAVOK 15/13 Q1018 NOSIG
2021-06-15 04:30 S 170° 3 - LFSB 150230Z AUTO 17003KT CAVOK 15/13 Q1018 NOSIG
2021-06-15 04:00 - 0 - LFSB 150200Z AUTO 00000KT CAVOK 15/13 Q1019 NOSIG
2021-06-15 03:30 - 0 - LFSB 150130Z AUTO 00000KT CAVOK 15/13 Q1019 NOSIG
2021-06-15 03:00 - 0 - LFSB 150100Z AUTO 00000KT CAVOK 15/13 Q1019 NOSIG
2021-06-15 02:30 - 0 - LFSB 150030Z AUTO 00000KT CAVOK 16/13 Q1019 NOSIG
2021-06-15 02:00 - 0 - LFSB 150000Z AUTO 00000KT CAVOK 17/13 Q1019 NOSIG
2021-06-15 01:30 - 0 - LFSB 142330Z AUTO 00000KT CAVOK 17/13 Q1019 NOSIG
2021-06-15 01:00 var 360°
(330°–30°)
3 2–3 LFSB 142300Z AUTO 36003KT 330V030 CAVOK 18/13 Q1019 NOSIG
2021-06-15 00:30 NW 330° 5 5 LFSB 142230Z AUTO 33005KT CAVOK 19/13 Q1019 NOSIG
2021-06-15 00:00 NW 320° 6 6 LFSB 142200Z AUTO 32006KT 9999 FEW011 19/14 Q1019 NOSIG
2021-06-14 23:30 W 280° 4 2 LFSB 142130Z AUTO 28004KT CAVOK 19/14 Q1018 NOSIG
2021-06-14 23:00 W 260° 4 1 LFSB 142100Z AUTO 26004KT CAVOK 20/14 Q1018 NOSIG
2021-06-14 22:30 W 280° 3 2 LFSB 142030Z AUTO 28003KT CAVOK 21/14 Q1018 NOSIG
2021-06-14 22:00 NW 310°
(280°–340°)
4 2–4 LFSB 142000Z AUTO 31004KT 280V340 CAVOK 22/14 Q1018 NOSIG
2021-06-14 21:30 NW 320° 3 3 LFSB 141930Z AUTO 32003KT CAVOK 23/14 Q1018 NOSIG
2021-06-14 21:00 NW 330° 5 5 LFSB 141900Z AUTO 33005KT CAVOK 24/14 Q1018 NOSIG
2021-06-14 20:30 var 360° 3 3 LFSB 141830Z AUTO 36003KT CAVOK 26/14 Q1017 NOSIG
2021-06-14 20:00 N 350° 7 7 LFSB 141800Z AUTO 35007KT CAVOK 27/14 Q1018 NOSIG
2021-06-14 19:30 N 350° 5 5 LFSB 141730Z AUTO 35005KT CAVOK 27/14 Q1018 NOSIG
2021-06-14 19:00 N 350° 5 5 LFSB 141700Z 35005KT CAVOK 28/14 Q1018 NOSIG
2021-06-14 18:30 N 10°
(340°–50°)
5 2–5 LFSB 141630Z 01005KT 340V050 CAVOK 28/12 Q1018 NOSIG
2021-06-14 18:00 var 360°
(330°–30°)
5 3–5 LFSB 141600Z 36005KT 330V030 CAVOK 28/11 Q1018 NOSIG
2021-06-14 17:30 N 10°
(340°–60°)
4 1–4 LFSB 141530Z 01004KT 340V060 CAVOK 28/10 Q1018 NOSIG
2021-06-14 17:00 NW 330°
(270°–10°)
4 1–4 LFSB 141500Z 33004KT 270V010 CAVOK 28/12 Q1018 NOSIG
2021-06-14 16:30 var 360°
(290°–30°)
4 3–4 LFSB 141430Z 36004KT 290V030 CAVOK 28/11 Q1018 NOSIG
2021-06-14 16:00 - 3 - LFSB 141400Z VRB03KT CAVOK 28/10 Q1018 NOSIG
2021-06-14 15:30 var 360°
(320°–40°)
6 3–6 LFSB 141330Z 36006KT 320V040 CAVOK 27/11 Q1019 NOSIG
2021-06-14 15:00 N 350°
(310°–30°)
8 5–8 LFSB 141300Z 35008KT 310V030 CAVOK 27/12 Q1019 NOSIG
2021-06-14 14:30 N 350°
(320°–50°)
7 2–7 LFSB 141230Z 35007KT 320V050 CAVOK 26/12 Q1019 NOSIG
2021-06-14 14:00 N 350°
(290°–30°)
5 3–5 LFSB 141200Z 35005KT 290V030 CAVOK 26/12 Q1019 NOSIG